createdAt,value
2018-09-05T00:01:03.293Z,99912.00
2018-09-05T00:03:32.941Z,99913.00
2018-09-05T00:06:02.903Z,99913.00
2018-09-05T00:08:33.722Z,99911.00
2018-09-05T00:11:03.374Z,99907.00
2018-09-05T00:13:33.317Z,99903.00
2018-09-05T00:16:02.581Z,99898.00
2018-09-05T00:18:31.686Z,99900.00
2018-09-05T00:21:01.737Z,99904.00
2018-09-05T00:23:31.333Z,99897.00
2018-09-05T00:26:00.964Z,99900.00
2018-09-05T00:28:32.694Z,99902.00
2018-09-05T00:31:03.257Z,99903.00
2018-09-05T00:33:33.296Z,99904.00
2018-09-05T00:36:03.102Z,99903.00
2018-09-05T00:38:36.589Z,99899.00
2018-09-05T00:41:06.424Z,99896.00
2018-09-05T00:43:37.196Z,99899.00
2018-09-05T00:46:06.805Z,99894.00
2018-09-05T00:48:36.812Z,99896.00
2018-09-05T00:51:06.442Z,99893.00
2018-09-05T00:53:36.339Z,99894.00
2018-09-05T00:56:06.807Z,99893.00
2018-09-05T00:58:35.944Z,99898.00
2018-09-05T01:01:05.625Z,99896.00
2018-09-05T01:03:34.930Z,99896.00
2018-09-05T01:06:04.293Z,99895.00
2018-09-05T01:08:34.132Z,99894.00
2018-09-05T01:11:03.616Z,99890.00
2018-09-05T01:13:34.254Z,99894.00
2018-09-05T01:16:03.520Z,99891.00
2018-09-05T01:18:33.648Z,99896.00
2018-09-05T01:21:02.932Z,99895.00
2018-09-05T01:23:33.087Z,99891.00
2018-09-05T01:26:04.282Z,99892.00
2018-09-05T01:28:33.548Z,99898.00
2018-09-05T01:31:03.004Z,99892.00
2018-09-05T01:33:33.456Z,99889.00
2018-09-05T01:36:22.169Z,99896.00
2018-09-05T01:38:51.728Z,99898.00
2018-09-05T01:41:23.461Z,99895.00
2018-09-05T01:43:53.736Z,99892.00
2018-09-05T01:46:25.443Z,99894.00
2018-09-05T01:48:56.122Z,99893.00
2018-09-05T01:51:25.879Z,99896.00
2018-09-05T01:53:55.468Z,99894.00
2018-09-05T01:56:25.578Z,99892.00
2018-09-05T01:58:56.310Z,99893.00
2018-09-05T02:01:25.543Z,99898.00
2018-09-05T02:03:54.946Z,99893.00
2018-09-05T02:06:24.821Z,99894.00
2018-09-05T02:08:56.459Z,99897.00
2018-09-05T02:11:26.055Z,99895.00
2018-09-05T02:13:55.932Z,99897.00
2018-09-05T02:16:26.523Z,99895.00
2018-09-05T02:18:58.309Z,99897.00
2018-09-05T02:21:27.678Z,99898.00
2018-09-05T02:23:57.656Z,99898.00
2018-09-05T02:26:27.844Z,99893.00
2018-09-05T02:28:57.472Z,99893.00
2018-09-05T02:31:27.399Z,99893.00
2018-09-05T02:33:56.901Z,99886.00
2018-09-05T02:36:27.578Z,99885.00
2018-09-05T02:38:57.753Z,99881.00
2018-09-05T02:41:27.558Z,99882.00
2018-09-05T02:44:02.337Z,99883.00
2018-09-05T02:46:33.731Z,99883.00
2018-09-05T02:49:04.881Z,99881.00
2018-09-05T02:51:34.444Z,99878.00
2018-09-05T02:54:05.639Z,99882.00
2018-09-05T02:56:35.817Z,99880.00
2018-09-05T02:59:05.803Z,99877.00
2018-09-05T03:01:35.539Z,99880.00
2018-09-05T03:04:04.621Z,99879.00
2018-09-05T03:06:34.086Z,99881.00
2018-09-05T03:09:04.840Z,99879.00
2018-09-05T03:11:34.696Z,99884.00
2018-09-05T03:14:05.214Z,99876.00
2018-09-05T03:16:35.087Z,99882.00
2018-09-05T03:19:05.509Z,99880.00
2018-09-05T03:21:34.601Z,99877.00
2018-09-05T03:24:04.053Z,99878.00
2018-09-05T03:26:33.344Z,99880.00
2018-09-05T03:29:02.795Z,99879.00
2018-09-05T03:31:32.730Z,99879.00
2018-09-05T03:34:02.963Z,99878.00
2018-09-05T03:36:32.719Z,99878.00
2018-09-05T03:39:02.792Z,99877.00
2018-09-05T03:41:31.850Z,99881.00
2018-09-05T03:44:01.356Z,99878.00
2018-09-05T03:46:30.825Z,99876.00
2018-09-05T03:49:00.703Z,99875.00
2018-09-05T03:51:32.975Z,99872.00
2018-09-05T03:54:02.651Z,99870.00
2018-09-05T03:56:33.260Z,99874.00
2018-09-05T03:59:03.349Z,99876.00
2018-09-05T04:01:34.909Z,99876.00
2018-09-05T04:04:06.597Z,99872.00
2018-09-05T04:06:40.567Z,99876.00
2018-09-05T04:09:09.836Z,99883.00
2018-09-05T04:11:39.753Z,99877.00
2018-09-05T04:14:10.616Z,99882.00
2018-09-05T04:16:40.424Z,99876.00
2018-09-05T04:19:10.891Z,99877.00
2018-09-05T04:21:41.215Z,99873.00
2018-09-05T04:24:10.309Z,99873.00
2018-09-05T04:26:40.435Z,99870.00
2018-09-05T04:29:09.567Z,99872.00
2018-09-05T04:31:39.321Z,99869.00
2018-09-05T04:34:09.313Z,99876.00
2018-09-05T04:36:39.138Z,99868.00
2018-09-05T04:39:11.110Z,99875.00
2018-09-05T04:41:41.509Z,99871.00
2018-09-05T04:44:13.398Z,99868.00
2018-09-05T04:46:43.298Z,99868.00
2018-09-05T04:49:12.946Z,99870.00
2018-09-05T04:51:43.403Z,99870.00
2018-09-05T04:54:15.194Z,99871.00
2018-09-05T04:56:45.754Z,99874.00
2018-09-05T04:59:15.972Z,99877.00
2018-09-05T05:01:45.259Z,99872.00
2018-09-05T05:04:14.838Z,99880.00
2018-09-05T05:06:44.609Z,99883.00
2018-09-05T05:09:15.056Z,99886.00
2018-09-05T05:11:44.967Z,99886.00
2018-09-05T05:14:14.639Z,99891.00
2018-09-05T05:16:44.655Z,99893.00
2018-09-05T05:19:14.860Z,99890.00
2018-09-05T05:21:44.545Z,99895.00
2018-09-05T05:24:14.329Z,99896.00
2018-09-05T05:26:44.458Z,99897.00
2018-09-05T05:29:14.809Z,99898.00
2018-09-05T05:31:43.945Z,99892.00
2018-09-05T05:34:14.377Z,99893.00
2018-09-05T05:36:44.119Z,99901.00
2018-09-05T05:39:13.884Z,99900.00
2018-09-05T05:41:43.891Z,99904.00
2018-09-05T05:44:14.785Z,99900.00
2018-09-05T05:46:44.132Z,99905.00
2018-09-05T05:49:14.067Z,99910.00
2018-09-05T05:51:43.783Z,99912.00
2018-09-05T05:54:14.270Z,99913.00
2018-09-05T05:56:44.094Z,99916.00
2018-09-05T05:59:14.494Z,99915.00
2018-09-05T06:01:44.928Z,99916.00
2018-09-05T06:04:15.554Z,99917.00
2018-09-05T06:06:47.505Z,99915.00
2018-09-05T06:09:18.545Z,99914.00
2018-09-05T06:11:47.823Z,99915.00
2018-09-05T06:14:17.666Z,99922.00
2018-09-05T06:16:48.547Z,99924.00
2018-09-05T06:19:18.834Z,99918.00
2018-09-05T06:21:48.372Z,99924.00
2018-09-05T06:24:18.148Z,99923.00
2018-09-05T06:26:47.897Z,99926.00
2018-09-05T06:29:18.792Z,99925.00
2018-09-05T06:31:48.679Z,99924.00
2018-09-05T06:34:18.455Z,99926.00
2018-09-05T06:36:49.023Z,99926.00
2018-09-05T06:39:20.441Z,99924.00
2018-09-05T06:41:50.050Z,99924.00
2018-09-05T06:44:21.121Z,99922.00
2018-09-05T06:46:50.501Z,99922.00
2018-09-05T06:49:19.931Z,99923.00
2018-09-05T06:51:50.296Z,99926.00
2018-09-05T06:54:21.036Z,99924.00
2018-09-05T06:56:50.696Z,99925.00
2018-09-05T06:59:20.696Z,99924.00
2018-09-05T07:01:50.234Z,99923.00
2018-09-05T07:04:21.187Z,99916.00
2018-09-05T07:06:51.316Z,99920.00
2018-09-05T07:09:22.600Z,99913.00
2018-09-05T07:11:52.646Z,99918.00
2018-09-05T07:14:22.177Z,99928.00
2018-09-05T07:16:52.046Z,99931.00
2018-09-05T07:19:21.929Z,99930.00
2018-09-05T07:21:51.241Z,99923.00
2018-09-05T07:24:22.239Z,99919.00
2018-09-05T07:26:51.810Z,99921.00
2018-09-05T07:29:22.472Z,99926.00
2018-09-05T07:31:52.086Z,99925.00
2018-09-05T07:34:22.134Z,99927.00
2018-09-05T07:36:55.402Z,99928.00
2018-09-05T07:39:25.265Z,99927.00
2018-09-05T07:41:54.731Z,99926.00
2018-09-05T07:44:24.652Z,99929.00
2018-09-05T07:46:54.475Z,99929.00
2018-09-05T07:49:27.256Z,99931.00
2018-09-05T07:51:57.175Z,99933.00
2018-09-05T07:54:27.099Z,99937.00
2018-09-05T07:56:56.154Z,99938.00
2018-09-05T07:59:25.691Z,99933.00
2018-09-05T08:01:55.614Z,99933.00
2018-09-05T08:04:25.081Z,99934.00
2018-09-05T08:06:56.324Z,99934.00
2018-09-05T08:09:26.114Z,99937.00
2018-09-05T08:11:57.188Z,99934.00
2018-09-05T08:14:26.599Z,99939.00
2018-09-05T08:16:56.474Z,99936.00
2018-09-05T08:19:26.205Z,99924.00
2018-09-05T08:21:55.323Z,99930.00
2018-09-05T08:24:25.448Z,99930.00
2018-09-05T08:26:55.039Z,99928.00
2018-09-05T08:29:25.472Z,99930.00
2018-09-05T08:31:55.110Z,99931.00
2018-09-05T08:34:24.531Z,99930.00
2018-09-05T08:36:54.095Z,99936.00
2018-09-05T08:39:22.865Z,99933.00
2018-09-05T08:41:52.749Z,99928.00
2018-09-05T08:44:23.192Z,99929.00
2018-09-05T08:46:54.034Z,99924.00
2018-09-05T08:49:23.573Z,99926.00
2018-09-05T08:51:53.461Z,99919.00
2018-09-05T08:54:23.820Z,99924.00
2018-09-05T08:56:53.828Z,99930.00
2018-09-05T08:59:23.458Z,99930.00
2018-09-05T09:01:54.650Z,99931.00
2018-09-05T09:04:25.045Z,99934.00
2018-09-05T09:06:56.634Z,99931.00
2018-09-05T09:09:26.192Z,99928.00
2018-09-05T09:11:56.972Z,99931.00
2018-09-05T09:14:27.128Z,99935.00
2018-09-05T09:16:57.117Z,99927.00
2018-09-05T09:19:27.572Z,99926.00
2018-09-05T09:21:57.555Z,99923.00
2018-09-05T09:24:28.610Z,99932.00
2018-09-05T09:26:58.489Z,99929.00
2018-09-05T09:29:28.153Z,99925.00
2018-09-05T09:31:58.072Z,99921.00
2018-09-05T09:34:27.834Z,99919.00
2018-09-05T09:36:57.097Z,99918.00
2018-09-05T09:39:26.476Z,99920.00
2018-09-05T09:41:56.118Z,99916.00
2018-09-05T09:44:25.539Z,99918.00
2018-09-05T09:46:55.069Z,99916.00
2018-09-05T09:49:26.860Z,99921.00
2018-09-05T09:52:01.551Z,99920.00
2018-09-05T09:54:33.857Z,99911.00
2018-09-05T09:57:05.051Z,99911.00
2018-09-05T09:59:34.981Z,99913.00
2018-09-05T10:02:10.149Z,99908.00
2018-09-05T10:04:44.988Z,99904.00
2018-09-05T10:07:21.085Z,99903.00
2018-09-05T10:12:00.959Z,99906.00
2018-09-05T10:14:32.885Z,99899.00
2018-09-05T10:17:07.606Z,99899.00
2018-09-05T10:19:37.878Z,99895.00
2018-09-05T10:22:07.688Z,99885.00
2018-09-05T10:24:38.115Z,99888.00
2018-09-05T10:27:09.372Z,99888.00
2018-09-05T10:29:39.443Z,99889.00
2018-09-05T10:32:09.252Z,99887.00
2018-09-05T10:34:40.151Z,99883.00
2018-09-05T10:37:11.618Z,99884.00
2018-09-05T10:39:41.038Z,99886.00
2018-09-05T10:42:10.527Z,99883.00
2018-09-05T10:44:40.974Z,99884.00
2018-09-05T10:47:11.510Z,99882.00
2018-09-05T10:49:43.375Z,99885.00
2018-09-05T10:52:12.583Z,99884.00
2018-09-05T10:54:42.861Z,99883.00
2018-09-05T10:57:13.487Z,99881.00
2018-09-05T10:59:44.134Z,99879.00
2018-09-05T11:02:15.672Z,99878.00
2018-09-05T11:04:45.936Z,99879.00
2018-09-05T11:07:17.926Z,99874.00
2018-09-05T11:09:48.307Z,99869.00
2018-09-05T11:12:20.582Z,99869.00
2018-09-05T11:14:49.947Z,99868.00
2018-09-05T11:17:20.063Z,99866.00
2018-09-05T11:19:50.361Z,99862.00
2018-09-05T11:22:19.754Z,99862.00
2018-09-05T11:24:50.363Z,99858.00
2018-09-05T11:27:21.251Z,99858.00
2018-09-05T11:29:51.908Z,99851.00
2018-09-05T11:32:22.152Z,99856.00
2018-09-05T11:34:52.239Z,99856.00
2018-09-05T11:37:22.117Z,99862.00
2018-09-05T11:39:51.988Z,99857.00
2018-09-05T11:42:23.488Z,99859.00
2018-09-05T11:44:54.070Z,99857.00
2018-09-05T11:47:24.313Z,99858.00
2018-09-05T11:49:54.917Z,99852.00
2018-09-05T11:52:26.366Z,99851.00
2018-09-05T11:54:56.346Z,99850.00
2018-09-05T11:57:26.184Z,99849.00
2018-09-05T11:59:56.006Z,99844.00
2018-09-05T12:02:25.963Z,99842.00
2018-09-05T12:04:55.946Z,99841.00
2018-09-05T12:07:25.901Z,99841.00
2018-09-05T12:09:57.986Z,99833.00
2018-09-05T12:12:27.842Z,99838.00
2018-09-05T12:14:57.407Z,99837.00
2018-09-05T12:17:26.814Z,99835.00
2018-09-05T12:19:56.652Z,99825.00
2018-09-05T12:22:28.334Z,99831.00
2018-09-05T12:24:59.241Z,99825.00
2018-09-05T12:27:31.330Z,99825.00
2018-09-05T12:30:00.920Z,99824.00
2018-09-05T12:32:30.730Z,99825.00
2018-09-05T12:35:00.850Z,99824.00
2018-09-05T12:37:33.098Z,99822.00
2018-09-05T12:40:03.420Z,99823.00
2018-09-05T12:42:32.969Z,99823.00
2018-09-05T12:45:03.043Z,99816.00
2018-09-05T12:47:32.825Z,99816.00
2018-09-05T12:50:02.416Z,99808.00
2018-09-05T12:52:33.009Z,99811.00
2018-09-05T12:55:02.469Z,99807.00
2018-09-05T12:57:32.192Z,99800.00
2018-09-05T13:00:02.251Z,99803.00
2018-09-05T13:02:32.064Z,99803.00
2018-09-05T13:05:01.895Z,99797.00
2018-09-05T13:07:31.527Z,99798.00
2018-09-05T13:10:01.251Z,99798.00
2018-09-05T13:12:31.682Z,99796.00
2018-09-05T13:15:02.032Z,99791.00
2018-09-05T13:17:32.161Z,99786.00
2018-09-05T13:20:02.110Z,99783.00
2018-09-05T13:22:33.296Z,99787.00
2018-09-05T13:25:03.916Z,99781.00
2018-09-05T13:27:33.970Z,99783.00
2018-09-05T13:30:03.801Z,99775.00
2018-09-05T13:32:33.530Z,99773.00
2018-09-05T13:35:03.524Z,99765.00
2018-09-05T13:37:33.613Z,99765.00
2018-09-05T13:40:03.179Z,99760.00
2018-09-05T13:42:33.346Z,99761.00
2018-09-05T13:45:03.038Z,99765.00
2018-09-05T13:47:33.145Z,99765.00
2018-09-05T13:50:04.045Z,99764.00
2018-09-05T13:52:40.678Z,99763.00
2018-09-05T13:55:10.527Z,99769.00
2018-09-05T13:57:41.399Z,99769.00
2018-09-05T14:00:15.032Z,99770.00
2018-09-05T14:02:47.505Z,99771.00
2018-09-05T14:05:18.338Z,99760.00
2018-09-05T14:07:48.066Z,99762.00
2018-09-05T14:10:17.554Z,99762.00
2018-09-05T14:12:48.481Z,99758.00
2018-09-05T14:15:18.776Z,99754.00
2018-09-05T14:17:48.188Z,99747.00
2018-09-05T14:20:17.812Z,99752.00
2018-09-05T14:22:47.408Z,99748.00
2018-09-05T14:25:17.982Z,99745.00
2018-09-05T14:27:47.562Z,99741.00
2018-09-05T14:30:17.747Z,99735.00
2018-09-05T14:32:47.430Z,99731.00
2018-09-05T14:35:16.884Z,99735.00
2018-09-05T14:37:46.934Z,99733.00
2018-09-05T14:40:17.134Z,99733.00
2018-09-05T14:42:47.244Z,99730.00
2018-09-05T14:45:18.081Z,99729.00
2018-09-05T14:47:49.560Z,99732.00
2018-09-05T14:50:20.850Z,99731.00
2018-09-05T14:52:53.025Z,99731.00
2018-09-05T14:55:23.948Z,99727.00
2018-09-05T14:57:54.487Z,99725.00
2018-09-05T15:00:24.776Z,99720.00
2018-09-05T15:02:54.844Z,99720.00
2018-09-05T15:05:25.142Z,99714.00
2018-09-05T15:07:55.255Z,99713.00
2018-09-05T15:10:25.197Z,99714.00
2018-09-05T15:12:55.441Z,99711.00
2018-09-05T15:15:26.311Z,99703.00
2018-09-05T15:17:55.697Z,99712.00
2018-09-05T15:20:27.458Z,99706.00
2018-09-05T15:22:56.939Z,99700.00
2018-09-05T15:25:26.111Z,99699.00
2018-09-05T15:27:56.706Z,99694.00
2018-09-05T15:30:26.325Z,99696.00
2018-09-05T15:32:55.781Z,99689.00
2018-09-05T15:35:25.544Z,99696.00
2018-09-05T15:37:55.671Z,99695.00
2018-09-05T15:40:25.325Z,99700.00
2018-09-05T15:42:55.505Z,99701.00
2018-09-05T15:45:27.359Z,99699.00
2018-09-05T15:47:58.882Z,99696.00
2018-09-05T15:50:29.311Z,99695.00
2018-09-05T15:52:58.730Z,99693.00
2018-09-05T15:55:28.455Z,99699.00
2018-09-05T15:57:57.664Z,99690.00
2018-09-05T16:00:29.497Z,99694.00
2018-09-05T16:02:59.314Z,99690.00
2018-09-05T16:05:30.821Z,99687.00
2018-09-05T16:08:01.540Z,99691.00
2018-09-05T16:10:32.164Z,99684.00
2018-09-05T16:13:02.994Z,99687.00
2018-09-05T16:15:34.246Z,99682.00
2018-09-05T16:18:05.414Z,99681.00
2018-09-05T16:20:35.778Z,99672.00
2018-09-05T16:23:05.563Z,99677.00
2018-09-05T16:25:34.986Z,99671.00
2018-09-05T16:28:04.471Z,99665.00
2018-09-05T16:30:34.610Z,99672.00
2018-09-05T16:33:04.174Z,99667.00
2018-09-05T16:35:34.814Z,99672.00
2018-09-05T16:38:04.805Z,99673.00
2018-09-05T16:40:34.869Z,99671.00
2018-09-05T16:43:04.420Z,99671.00
2018-09-05T16:45:33.915Z,99668.00
2018-09-05T16:48:03.819Z,99669.00
2018-09-05T16:50:33.977Z,99666.00
2018-09-05T16:53:05.588Z,99668.00
2018-09-05T16:55:35.614Z,99666.00
2018-09-05T16:58:06.245Z,99667.00
2018-09-05T17:00:35.470Z,99670.00
2018-09-05T17:03:05.023Z,99667.00
2018-09-05T17:05:36.381Z,99667.00
2018-09-05T17:08:06.190Z,99673.00
2018-09-05T17:10:36.117Z,99677.00
2018-09-05T17:13:06.085Z,99680.00
2018-09-05T17:15:36.010Z,99682.00
2018-09-05T17:18:06.153Z,99689.00
2018-09-05T17:20:36.288Z,99689.00
2018-09-05T17:23:06.323Z,99696.00
2018-09-05T17:25:36.246Z,99696.00
2018-09-05T17:28:06.308Z,99697.00
2018-09-05T17:30:36.091Z,99700.00
2018-09-05T17:33:06.605Z,99707.00
2018-09-05T17:35:37.480Z,99704.00
2018-09-05T17:38:09.823Z,99702.00
2018-09-05T17:40:43.134Z,99701.00
2018-09-05T17:43:13.867Z,99698.00
2018-09-05T17:45:43.175Z,99699.00
2018-09-05T17:48:13.644Z,99699.00
2018-09-05T17:50:45.247Z,99700.00
2018-09-05T17:53:15.709Z,99698.00
2018-09-05T17:55:47.389Z,99697.00
2018-09-05T17:58:18.045Z,99691.00
2018-09-05T18:00:49.856Z,99688.00
2018-09-05T18:03:20.899Z,99690.00
2018-09-05T18:05:51.748Z,99682.00
2018-09-05T18:08:22.754Z,99675.00
2018-09-05T18:10:52.237Z,99676.00
2018-09-05T18:13:24.266Z,99672.00
2018-09-05T18:15:55.911Z,99674.00
2018-09-05T18:18:29.766Z,99679.00
2018-09-05T18:20:59.089Z,99680.00
2018-09-05T18:24:02.463Z,99677.00
2018-09-05T18:26:34.855Z,99682.00
2018-09-05T18:29:18.002Z,99679.00
2018-09-05T18:31:48.679Z,99682.00
2018-09-05T18:34:18.123Z,99690.00
2018-09-05T18:36:50.312Z,99698.00
2018-09-05T18:39:19.413Z,99701.00
2018-09-05T18:41:55.474Z,99706.00
2018-09-05T18:44:25.558Z,99707.00
2018-09-05T18:46:54.928Z,99705.00
2018-09-05T18:49:24.445Z,99700.00
2018-09-05T18:51:54.923Z,99697.00
2018-09-05T18:54:25.691Z,99699.00
2018-09-05T18:56:56.964Z,99717.00
2018-09-05T18:59:26.720Z,99719.00
2018-09-05T19:01:56.918Z,99714.00
2018-09-05T19:04:26.089Z,99709.00
2018-09-05T19:06:55.510Z,99709.00
2018-09-05T19:09:24.846Z,99712.00
2018-09-05T19:11:54.078Z,99717.00
2018-09-05T19:14:23.318Z,99711.00
2018-09-05T19:16:53.527Z,99708.00
2018-09-05T19:19:23.682Z,99710.00
2018-09-05T19:24:36.807Z,99701.00
2018-09-05T19:27:06.563Z,99695.00
2018-09-05T19:29:37.116Z,99701.00
2018-09-05T19:32:09.305Z,99696.00
2018-09-05T19:37:16.633Z,99692.00
2018-09-05T19:39:46.477Z,99697.00
2018-09-05T19:42:16.852Z,99698.00
2018-09-05T19:44:47.911Z,99697.00
2018-09-05T19:47:17.722Z,99694.00
2018-09-05T19:49:47.397Z,99699.00
2018-09-05T19:52:17.852Z,99702.00
2018-09-05T19:57:48.360Z,99704.00
2018-09-05T20:00:34.740Z,99705.00
2018-09-05T20:03:19.605Z,99700.00
2018-09-05T20:05:49.595Z,99704.00
2018-09-05T20:08:21.663Z,99707.00
2018-09-05T20:10:53.081Z,99695.00
2018-09-05T20:13:25.128Z,99699.00
2018-09-05T20:15:54.621Z,99705.00
2018-09-05T20:18:25.614Z,99708.00
2018-09-05T20:20:55.296Z,99715.00
2018-09-05T20:23:26.306Z,99713.00
2018-09-05T20:25:56.852Z,99712.00
2018-09-05T20:28:30.748Z,99716.00
2018-09-05T20:30:59.981Z,99710.00
2018-09-05T20:33:29.161Z,99708.00
2018-09-05T20:35:59.403Z,99706.00
2018-09-05T20:38:28.841Z,99701.00
2018-09-05T20:40:58.969Z,99706.00
2018-09-05T20:43:28.186Z,99714.00
2018-09-05T20:45:57.509Z,99706.00
2018-09-05T20:48:26.810Z,99705.00
2018-09-05T20:50:55.941Z,99705.00
2018-09-05T20:53:25.076Z,99701.00
2018-09-05T20:55:54.271Z,99701.00
2018-09-05T20:58:23.412Z,99698.00
2018-09-05T21:00:52.699Z,99704.00
2018-09-05T21:03:21.888Z,99701.00
2018-09-05T21:05:51.320Z,99699.00
2018-09-05T21:08:21.353Z,99702.00
2018-09-05T21:10:51.017Z,99701.00
2018-09-05T21:13:20.224Z,99701.00
2018-09-05T21:15:49.340Z,99702.00
2018-09-05T21:18:18.648Z,99704.00
2018-09-05T21:20:48.703Z,99712.00
2018-09-05T21:23:18.047Z,99714.00
2018-09-05T21:25:47.260Z,99723.00
2018-09-05T21:28:16.776Z,99724.00
2018-09-05T21:30:46.296Z,99729.00
2018-09-05T21:33:16.121Z,99735.00
2018-09-05T21:35:46.390Z,99735.00
2018-09-05T21:38:17.355Z,99742.00
2018-09-05T21:40:47.038Z,99744.00
2018-09-05T21:43:16.861Z,99747.00
2018-09-05T21:45:47.583Z,99747.00
2018-09-05T21:48:17.420Z,99761.00
2018-09-05T21:50:46.786Z,99765.00
2018-09-05T21:53:17.389Z,99759.00
2018-09-05T21:55:46.691Z,99755.00
2018-09-05T21:58:18.369Z,99749.00
2018-09-05T22:00:48.428Z,99748.00
2018-09-05T22:03:19.006Z,99748.00
2018-09-05T22:05:49.231Z,99740.00
2018-09-05T22:08:21.651Z,99735.00
2018-09-05T22:10:53.059Z,99728.00
2018-09-05T22:13:23.769Z,99724.00
2018-09-05T22:15:56.418Z,99731.00
2018-09-05T22:18:27.951Z,99730.00
2018-09-05T22:20:57.403Z,99729.00
2018-09-05T22:23:26.855Z,99720.00
2018-09-05T22:25:58.368Z,99714.00
2018-09-05T22:28:32.211Z,99715.00
2018-09-05T22:31:02.766Z,99716.00
2018-09-05T22:33:34.299Z,99718.00
2018-09-05T22:36:05.967Z,99711.00
2018-09-05T22:38:36.255Z,99707.00
2018-09-05T22:41:06.368Z,99701.00
2018-09-05T22:43:52.433Z,99699.00
2018-09-05T22:46:39.008Z,99691.00
2018-09-05T22:51:40.824Z,99685.00
2018-09-05T22:56:33.638Z,99682.00
2018-09-05T22:59:32.438Z,99671.00
2018-09-05T23:05:28.237Z,99672.00
2018-09-05T23:08:43.152Z,99672.00
2018-09-05T23:11:56.721Z,99668.00
2018-09-05T23:14:45.503Z,99666.00
2018-09-05T23:17:31.526Z,99667.00
2018-09-05T23:20:37.024Z,99665.00
2018-09-05T23:24:19.796Z,99664.00
2018-09-05T23:26:54.141Z,99661.00
2018-09-05T23:29:25.547Z,99661.00
2018-09-05T23:31:55.583Z,99658.00
2018-09-05T23:34:29.242Z,99656.00
2018-09-05T23:37:01.494Z,99652.00
2018-09-05T23:39:36.033Z,99660.00
2018-09-05T23:42:10.194Z,99651.00
2018-09-05T23:44:40.735Z,99654.00
2018-09-05T23:47:11.381Z,99654.00
2018-09-05T23:49:42.321Z,99652.00
2018-09-05T23:52:13.587Z,99650.00
2018-09-05T23:54:47.262Z,99656.00
2018-09-05T23:57:17.221Z,99659.00
2018-09-05T23:59:49.785Z,99659.00
